sensor_id;sensor_type;location;lat;lon;timestamp;P1;durP1;ratioP1;P2;durP2;ratioP2
49416;SDS011;35290;39.550;8.786;2023-12-20T00:01:45;39.70;;;23.88;;
49416;SDS011;35290;39.550;8.786;2023-12-20T00:04:11;43.08;;;23.10;;
49416;SDS011;35290;39.550;8.786;2023-12-20T00:06:36;43.03;;;23.58;;
49416;SDS011;35290;39.550;8.786;2023-12-20T00:09:02;43.03;;;24.42;;
49416;SDS011;35290;39.550;8.786;2023-12-20T00:11:27;43.40;;;24.45;;
49416;SDS011;35290;39.550;8.786;2023-12-20T00:13:52;48.05;;;26.08;;
49416;SDS011;35290;39.550;8.786;2023-12-20T00:16:18;47.72;;;25.90;;
49416;SDS011;35290;39.550;8.786;2023-12-20T00:18:43;53.15;;;28.58;;
49416;SDS011;35290;39.550;8.786;2023-12-20T00:21:10;49.58;;;29.25;;
49416;SDS011;35290;39.550;8.786;2023-12-20T00:23:36;53.22;;;29.83;;
49416;SDS011;35290;39.550;8.786;2023-12-20T00:26:01;49.58;;;28.75;;
49416;SDS011;35290;39.550;8.786;2023-12-20T00:28:27;49.35;;;27.75;;
49416;SDS011;35290;39.550;8.786;2023-12-20T00:30:53;48.75;;;28.08;;
49416;SDS011;35290;39.550;8.786;2023-12-20T00:33:18;45.92;;;27.63;;
49416;SDS011;35290;39.550;8.786;2023-12-20T00:35:44;42.38;;;24.83;;
49416;SDS011;35290;39.550;8.786;2023-12-20T00:38:09;41.85;;;23.85;;
49416;SDS011;35290;39.550;8.786;2023-12-20T00:40:36;37.92;;;22.42;;
49416;SDS011;35290;39.550;8.786;2023-12-20T00:43:02;33.65;;;20.13;;
49416;SDS011;35290;39.550;8.786;2023-12-20T00:45:28;31.17;;;17.83;;
49416;SDS011;35290;39.550;8.786;2023-12-20T00:47:54;32.60;;;19.15;;
49416;SDS011;35290;39.550;8.786;2023-12-20T00:50:19;28.10;;;16.67;;
49416;SDS011;35290;39.550;8.786;2023-12-20T00:52:46;28.13;;;16.27;;
49416;SDS011;35290;39.550;8.786;2023-12-20T00:55:12;23.67;;;14.75;;
49416;SDS011;35290;39.550;8.786;2023-12-20T00:57:37;25.65;;;15.27;;
49416;SDS011;35290;39.550;8.786;2023-12-20T01:00:03;24.95;;;15.55;;
49416;SDS011;35290;39.550;8.786;2023-12-20T01:02:29;23.17;;;13.55;;
49416;SDS011;35290;39.550;8.786;2023-12-20T01:04:54;21.92;;;13.55;;
49416;SDS011;35290;39.550;8.786;2023-12-20T01:07:20;25.08;;;14.90;;
49416;SDS011;35290;39.550;8.786;2023-12-20T01:09:46;23.63;;;14.70;;
49416;SDS011;35290;39.550;8.786;2023-12-20T01:12:12;24.50;;;14.68;;
49416;SDS011;35290;39.550;8.786;2023-12-20T01:14:37;22.27;;;13.32;;
49416;SDS011;35290;39.550;8.786;2023-12-20T01:17:04;22.33;;;13.32;;
49416;SDS011;35290;39.550;8.786;2023-12-20T01:19:29;20.00;;;12.25;;
49416;SDS011;35290;39.550;8.786;2023-12-20T01:21:55;20.05;;;12.23;;
49416;SDS011;35290;39.550;8.786;2023-12-20T01:24:21;21.25;;;11.73;;
49416;SDS011;35290;39.550;8.786;2023-12-20T01:26:46;18.25;;;11.65;;
49416;SDS011;35290;39.550;8.786;2023-12-20T01:29:12;19.92;;;11.85;;
49416;SDS011;35290;39.550;8.786;2023-12-20T01:31:39;20.42;;;12.95;;
49416;SDS011;35290;39.550;8.786;2023-12-20T01:34:08;33.45;;;18.48;;
49416;SDS011;35290;39.550;8.786;2023-12-20T01:36:33;33.50;;;18.05;;
49416;SDS011;35290;39.550;8.786;2023-12-20T01:38:59;30.98;;;16.42;;
49416;SDS011;35290;39.550;8.786;2023-12-20T01:41:25;48.88;;;25.15;;
49416;SDS011;35290;39.550;8.786;2023-12-20T01:43:50;42.22;;;20.92;;
49416;SDS011;35290;39.550;8.786;2023-12-20T01:46:16;34.67;;;17.52;;
49416;SDS011;35290;39.550;8.786;2023-12-20T01:48:42;31.13;;;16.45;;
49416;SDS011;35290;39.550;8.786;2023-12-20T01:51:07;36.92;;;18.80;;
49416;SDS011;35290;39.550;8.786;2023-12-20T01:53:33;30.52;;;16.80;;
49416;SDS011;35290;39.550;8.786;2023-12-20T01:55:59;31.52;;;16.25;;
49416;SDS011;35290;39.550;8.786;2023-12-20T01:58:24;27.40;;;14.82;;
49416;SDS011;35290;39.550;8.786;2023-12-20T02:00:51;32.35;;;17.65;;
49416;SDS011;35290;39.550;8.786;2023-12-20T02:03:17;29.05;;;15.98;;
49416;SDS011;35290;39.550;8.786;2023-12-20T02:05:43;29.20;;;15.23;;
49416;SDS011;35290;39.550;8.786;2023-12-20T02:08:09;28.67;;;15.80;;
49416;SDS011;35290;39.550;8.786;2023-12-20T02:10:35;29.33;;;15.20;;
49416;SDS011;35290;39.550;8.786;2023-12-20T02:13:01;29.45;;;15.85;;
49416;SDS011;35290;39.550;8.786;2023-12-20T02:15:26;30.27;;;17.27;;
49416;SDS011;35290;39.550;8.786;2023-12-20T02:17:52;28.17;;;16.50;;
49416;SDS011;35290;39.550;8.786;2023-12-20T02:20:17;27.58;;;16.80;;
49416;SDS011;35290;39.550;8.786;2023-12-20T02:22:43;31.42;;;16.90;;
49416;SDS011;35290;39.550;8.786;2023-12-20T02:25:08;29.85;;;17.80;;
49416;SDS011;35290;39.550;8.786;2023-12-20T02:27:34;26.95;;;15.65;;
49416;SDS011;35290;39.550;8.786;2023-12-20T02:30:00;26.10;;;15.07;;
49416;SDS011;35290;39.550;8.786;2023-12-20T02:32:25;27.52;;;15.40;;
49416;SDS011;35290;39.550;8.786;2023-12-20T02:34:54;22.67;;;15.13;;
49416;SDS011;35290;39.550;8.786;2023-12-20T02:37:20;23.77;;;13.98;;
49416;SDS011;35290;39.550;8.786;2023-12-20T02:39:45;23.55;;;13.40;;
49416;SDS011;35290;39.550;8.786;2023-12-20T02:42:11;20.40;;;12.25;;
49416;SDS011;35290;39.550;8.786;2023-12-20T02:44:36;20.27;;;12.23;;
49416;SDS011;35290;39.550;8.786;2023-12-20T02:47:02;19.13;;;10.65;;
49416;SDS011;35290;39.550;8.786;2023-12-20T02:49:27;16.65;;;10.15;;
49416;SDS011;35290;39.550;8.786;2023-12-20T02:51:53;18.00;;;11.60;;
49416;SDS011;35290;39.550;8.786;2023-12-20T02:54:19;20.15;;;11.75;;
49416;SDS011;35290;39.550;8.786;2023-12-20T02:56:44;17.67;;;11.40;;
49416;SDS011;35290;39.550;8.786;2023-12-20T02:59:10;18.00;;;11.15;;
49416;SDS011;35290;39.550;8.786;2023-12-20T03:01:36;19.88;;;11.73;;
49416;SDS011;35290;39.550;8.786;2023-12-20T03:04:07;21.25;;;12.45;;
49416;SDS011;35290;39.550;8.786;2023-12-20T03:06:32;19.00;;;12.20;;
49416;SDS011;35290;39.550;8.786;2023-12-20T03:08:58;24.40;;;15.00;;
49416;SDS011;35290;39.550;8.786;2023-12-20T03:11:26;22.15;;;13.27;;
49416;SDS011;35290;39.550;8.786;2023-12-20T03:13:52;28.48;;;16.70;;
49416;SDS011;35290;39.550;8.786;2023-12-20T03:16:18;29.27;;;16.95;;
49416;SDS011;35290;39.550;8.786;2023-12-20T03:18:43;32.45;;;16.67;;
49416;SDS011;35290;39.550;8.786;2023-12-20T03:21:09;26.05;;;14.65;;
49416;SDS011;35290;39.550;8.786;2023-12-20T03:23:35;25.35;;;14.95;;
49416;SDS011;35290;39.550;8.786;2023-12-20T03:26:00;24.02;;;13.82;;
49416;SDS011;35290;39.550;8.786;2023-12-20T03:28:26;21.45;;;13.00;;
49416;SDS011;35290;39.550;8.786;2023-12-20T03:30:52;24.33;;;13.88;;
49416;SDS011;35290;39.550;8.786;2023-12-20T03:33:18;23.33;;;14.32;;
49416;SDS011;35290;39.550;8.786;2023-12-20T03:35:43;24.33;;;13.73;;
49416;SDS011;35290;39.550;8.786;2023-12-20T03:38:09;27.73;;;13.60;;
49416;SDS011;35290;39.550;8.786;2023-12-20T03:40:34;23.58;;;12.88;;
49416;SDS011;35290;39.550;8.786;2023-12-20T03:43:00;19.42;;;11.70;;
49416;SDS011;35290;39.550;8.786;2023-12-20T03:45:26;18.95;;;12.38;;
49416;SDS011;35290;39.550;8.786;2023-12-20T03:47:51;21.35;;;12.30;;
49416;SDS011;35290;39.550;8.786;2023-12-20T03:50:24;20.08;;;12.80;;
49416;SDS011;35290;39.550;8.786;2023-12-20T03:52:50;21.73;;;12.70;;
49416;SDS011;35290;39.550;8.786;2023-12-20T03:55:15;18.33;;;11.95;;
49416;SDS011;35290;39.550;8.786;2023-12-20T03:57:41;19.23;;;11.02;;
49416;SDS011;35290;39.550;8.786;2023-12-20T04:00:07;17.63;;;10.30;;
49416;SDS011;35290;39.550;8.786;2023-12-20T04:02:40;14.15;;;9.82;;
49416;SDS011;35290;39.550;8.786;2023-12-20T04:05:06;16.30;;;10.10;;
49416;SDS011;35290;39.550;8.786;2023-12-20T04:07:32;14.38;;;8.75;;
49416;SDS011;35290;39.550;8.786;2023-12-20T04:09:58;14.45;;;9.60;;
49416;SDS011;35290;39.550;8.786;2023-12-20T04:12:23;15.38;;;9.00;;
49416;SDS011;35290;39.550;8.786;2023-12-20T04:14:49;13.57;;;9.05;;
49416;SDS011;35290;39.550;8.786;2023-12-20T04:17:15;14.50;;;8.23;;
49416;SDS011;35290;39.550;8.786;2023-12-20T04:19:41;10.88;;;7.60;;
49416;SDS011;35290;39.550;8.786;2023-12-20T04:22:10;13.70;;;7.53;;
49416;SDS011;35290;39.550;8.786;2023-12-20T04:24:36;10.15;;;6.78;;
49416;SDS011;35290;39.550;8.786;2023-12-20T04:27:02;11.80;;;7.20;;
49416;SDS011;35290;39.550;8.786;2023-12-20T04:29:27;9.20;;;6.40;;
49416;SDS011;35290;39.550;8.786;2023-12-20T04:31:53;11.32;;;6.45;;
49416;SDS011;35290;39.550;8.786;2023-12-20T04:34:19;10.80;;;6.80;;
49416;SDS011;35290;39.550;8.786;2023-12-20T04:36:45;9.70;;;6.05;;
49416;SDS011;35290;39.550;8.786;2023-12-20T04:39:11;10.27;;;5.95;;
49416;SDS011;35290;39.550;8.786;2023-12-20T04:41:38;9.75;;;6.28;;
49416;SDS011;35290;39.550;8.786;2023-12-20T04:44:04;9.50;;;5.60;;
49416;SDS011;35290;39.550;8.786;2023-12-20T04:46:31;9.95;;;5.30;;
49416;SDS011;35290;39.550;8.786;2023-12-20T04:48:57;9.35;;;5.90;;
49416;SDS011;35290;39.550;8.786;2023-12-20T04:51:22;10.95;;;5.80;;
49416;SDS011;35290;39.550;8.786;2023-12-20T04:53:47;8.05;;;5.38;;
49416;SDS011;35290;39.550;8.786;2023-12-20T04:56:13;8.43;;;5.22;;
49416;SDS011;35290;39.550;8.786;2023-12-20T04:58:38;8.70;;;5.88;;
49416;SDS011;35290;39.550;8.786;2023-12-20T05:01:07;8.07;;;5.65;;
49416;SDS011;35290;39.550;8.786;2023-12-20T05:03:33;13.85;;;8.30;;
49416;SDS011;35290;39.550;8.786;2023-12-20T05:05:59;13.30;;;10.05;;
49416;SDS011;35290;39.550;8.786;2023-12-20T05:08:24;12.95;;;9.60;;
49416;SDS011;35290;39.550;8.786;2023-12-20T05:10:50;13.60;;;8.52;;
49416;SDS011;35290;39.550;8.786;2023-12-20T05:13:19;10.15;;;6.70;;
49416;SDS011;35290;39.550;8.786;2023-12-20T05:15:44;8.43;;;5.85;;
49416;SDS011;35290;39.550;8.786;2023-12-20T05:18:10;9.10;;;7.10;;
49416;SDS011;35290;39.550;8.786;2023-12-20T05:20:35;12.38;;;7.57;;
49416;SDS011;35290;39.550;8.786;2023-12-20T05:23:01;11.63;;;7.65;;
49416;SDS011;35290;39.550;8.786;2023-12-20T05:25:26;13.07;;;8.25;;
49416;SDS011;35290;39.550;8.786;2023-12-20T05:27:52;11.88;;;8.45;;
49416;SDS011;35290;39.550;8.786;2023-12-20T05:30:17;14.40;;;9.90;;
49416;SDS011;35290;39.550;8.786;2023-12-20T05:32:43;19.98;;;10.93;;
49416;SDS011;35290;39.550;8.786;2023-12-20T05:35:09;20.40;;;10.93;;
49416;SDS011;35290;39.550;8.786;2023-12-20T05:37:34;22.27;;;13.82;;
49416;SDS011;35290;39.550;8.786;2023-12-20T05:40:00;28.02;;;14.88;;
49416;SDS011;35290;39.550;8.786;2023-12-20T05:42:25;24.67;;;13.07;;
49416;SDS011;35290;39.550;8.786;2023-12-20T05:44:51;22.02;;;13.00;;
49416;SDS011;35290;39.550;8.786;2023-12-20T05:47:16;18.98;;;11.50;;
49416;SDS011;35290;39.550;8.786;2023-12-20T05:49:42;22.15;;;12.52;;
49416;SDS011;35290;39.550;8.786;2023-12-20T05:52:09;33.35;;;18.75;;
49416;SDS011;35290;39.550;8.786;2023-12-20T05:54:34;31.10;;;17.05;;
49416;SDS011;35290;39.550;8.786;2023-12-20T05:57:00;43.97;;;21.67;;
49416;SDS011;35290;39.550;8.786;2023-12-20T05:59:25;30.92;;;17.92;;
49416;SDS011;35290;39.550;8.786;2023-12-20T06:01:51;30.05;;;16.33;;
49416;SDS011;35290;39.550;8.786;2023-12-20T06:04:17;22.65;;;14.05;;
49416;SDS011;35290;39.550;8.786;2023-12-20T06:06:42;18.52;;;11.85;;
49416;SDS011;35290;39.550;8.786;2023-12-20T06:09:08;18.02;;;12.23;;
49416;SDS011;35290;39.550;8.786;2023-12-20T06:11:34;14.25;;;10.60;;
49416;SDS011;35290;39.550;8.786;2023-12-20T06:14:00;17.63;;;11.55;;
49416;SDS011;35290;39.550;8.786;2023-12-20T06:16:25;18.02;;;11.23;;
49416;SDS011;35290;39.550;8.786;2023-12-20T06:18:51;21.67;;;12.23;;
49416;SDS011;35290;39.550;8.786;2023-12-20T06:21:18;29.83;;;16.80;;
49416;SDS011;35290;39.550;8.786;2023-12-20T06:23:43;29.55;;;16.92;;
49416;SDS011;35290;39.550;8.786;2023-12-20T06:26:09;21.83;;;14.18;;
49416;SDS011;35290;39.550;8.786;2023-12-20T06:28:34;30.90;;;17.60;;
49416;SDS011;35290;39.550;8.786;2023-12-20T06:31:00;33.72;;;20.85;;
49416;SDS011;35290;39.550;8.786;2023-12-20T06:33:25;30.63;;;18.65;;
49416;SDS011;35290;39.550;8.786;2023-12-20T06:35:51;28.25;;;19.02;;
49416;SDS011;35290;39.550;8.786;2023-12-20T06:38:17;30.23;;;19.63;;
49416;SDS011;35290;39.550;8.786;2023-12-20T06:40:44;29.75;;;19.30;;
49416;SDS011;35290;39.550;8.786;2023-12-20T06:43:09;27.85;;;18.25;;
49416;SDS011;35290;39.550;8.786;2023-12-20T06:45:35;27.42;;;19.58;;
49416;SDS011;35290;39.550;8.786;2023-12-20T06:48:00;41.70;;;24.65;;
49416;SDS011;35290;39.550;8.786;2023-12-20T06:50:26;37.10;;;24.80;;
49416;SDS011;35290;39.550;8.786;2023-12-20T06:52:52;33.42;;;22.25;;
49416;SDS011;35290;39.550;8.786;2023-12-20T06:55:18;32.80;;;21.75;;
49416;SDS011;35290;39.550;8.786;2023-12-20T06:57:43;40.97;;;23.88;;
49416;SDS011;35290;39.550;8.786;2023-12-20T07:00:11;42.45;;;25.02;;
49416;SDS011;35290;39.550;8.786;2023-12-20T07:02:38;51.20;;;26.90;;
49416;SDS011;35290;39.550;8.786;2023-12-20T07:05:03;42.85;;;26.13;;
49416;SDS011;35290;39.550;8.786;2023-12-20T07:07:29;40.15;;;26.85;;
49416;SDS011;35290;39.550;8.786;2023-12-20T07:09:55;39.17;;;24.65;;
49416;SDS011;35290;39.550;8.786;2023-12-20T07:12:20;44.10;;;24.67;;
49416;SDS011;35290;39.550;8.786;2023-12-20T07:14:46;40.88;;;25.40;;
49416;SDS011;35290;39.550;8.786;2023-12-20T07:17:12;40.63;;;25.13;;
49416;SDS011;35290;39.550;8.786;2023-12-20T07:19:39;36.03;;;23.75;;
49416;SDS011;35290;39.550;8.786;2023-12-20T07:22:05;36.40;;;24.00;;
49416;SDS011;35290;39.550;8.786;2023-12-20T07:24:31;43.30;;;23.95;;
49416;SDS011;35290;39.550;8.786;2023-12-20T07:26:56;40.20;;;23.85;;
49416;SDS011;35290;39.550;8.786;2023-12-20T07:29:22;56.70;;;29.70;;
49416;SDS011;35290;39.550;8.786;2023-12-20T07:31:47;55.75;;;28.83;;
49416;SDS011;35290;39.550;8.786;2023-12-20T07:34:13;56.60;;;31.38;;
49416;SDS011;35290;39.550;8.786;2023-12-20T07:36:38;63.83;;;33.22;;
49416;SDS011;35290;39.550;8.786;2023-12-20T07:39:03;54.80;;;29.83;;
49416;SDS011;35290;39.550;8.786;2023-12-20T07:41:31;45.00;;;26.40;;
49416;SDS011;35290;39.550;8.786;2023-12-20T07:43:56;35.67;;;21.60;;
49416;SDS011;35290;39.550;8.786;2023-12-20T07:46:21;39.70;;;23.00;;
49416;SDS011;35290;39.550;8.786;2023-12-20T07:48:50;35.78;;;19.95;;
49416;SDS011;35290;39.550;8.786;2023-12-20T07:51:16;33.15;;;19.05;;
49416;SDS011;35290;39.550;8.786;2023-12-20T07:53:41;29.38;;;18.92;;
49416;SDS011;35290;39.550;8.786;2023-12-20T07:56:16;34.10;;;17.60;;
49416;SDS011;35290;39.550;8.786;2023-12-20T07:58:42;27.13;;;17.08;;
49416;SDS011;35290;39.550;8.786;2023-12-20T08:01:09;29.83;;;18.50;;
49416;SDS011;35290;39.550;8.786;2023-12-20T08:03:35;26.38;;;17.50;;
49416;SDS011;35290;39.550;8.786;2023-12-20T08:06:01;33.60;;;20.90;;
49416;SDS011;35290;39.550;8.786;2023-12-20T08:08:27;38.03;;;23.55;;
49416;SDS011;35290;39.550;8.786;2023-12-20T08:10:54;47.15;;;29.02;;
49416;SDS011;35290;39.550;8.786;2023-12-20T08:13:19;41.75;;;26.50;;
49416;SDS011;35290;39.550;8.786;2023-12-20T08:15:44;39.50;;;25.58;;
49416;SDS011;35290;39.550;8.786;2023-12-20T08:18:10;39.15;;;26.55;;
49416;SDS011;35290;39.550;8.786;2023-12-20T08:20:37;40.17;;;24.17;;
49416;SDS011;35290;39.550;8.786;2023-12-20T08:23:02;38.28;;;24.92;;
49416;SDS011;35290;39.550;8.786;2023-12-20T08:25:27;41.03;;;25.08;;
49416;SDS011;35290;39.550;8.786;2023-12-20T08:27:53;41.30;;;25.10;;
49416;SDS011;35290;39.550;8.786;2023-12-20T08:30:18;45.70;;;26.73;;
49416;SDS011;35290;39.550;8.786;2023-12-20T08:32:47;42.78;;;27.70;;
49416;SDS011;35290;39.550;8.786;2023-12-20T08:35:13;47.90;;;27.70;;
49416;SDS011;35290;39.550;8.786;2023-12-20T08:37:38;61.00;;;38.15;;
49416;SDS011;35290;39.550;8.786;2023-12-20T08:40:04;61.53;;;37.47;;
49416;SDS011;35290;39.550;8.786;2023-12-20T08:42:30;82.55;;;49.78;;
49416;SDS011;35290;39.550;8.786;2023-12-20T08:44:57;97.43;;;62.13;;
49416;SDS011;35290;39.550;8.786;2023-12-20T08:47:23;93.30;;;61.90;;
49416;SDS011;35290;39.550;8.786;2023-12-20T08:49:49;92.13;;;59.45;;
49416;SDS011;35290;39.550;8.786;2023-12-20T08:52:14;96.13;;;63.05;;
49416;SDS011;35290;39.550;8.786;2023-12-20T08:54:40;88.10;;;60.25;;
49416;SDS011;35290;39.550;8.786;2023-12-20T08:57:05;85.55;;;55.58;;
49416;SDS011;35290;39.550;8.786;2023-12-20T08:59:32;83.35;;;53.67;;
49416;SDS011;35290;39.550;8.786;2023-12-20T09:01:58;53.03;;;33.97;;
49416;SDS011;35290;39.550;8.786;2023-12-20T09:04:23;58.42;;;37.45;;
49416;SDS011;35290;39.550;8.786;2023-12-20T09:06:49;56.80;;;37.85;;
49416;SDS011;35290;39.550;8.786;2023-12-20T09:09:14;55.50;;;36.38;;
49416;SDS011;35290;39.550;8.786;2023-12-20T09:11:40;54.35;;;34.25;;
49416;SDS011;35290;39.550;8.786;2023-12-20T09:14:06;52.40;;;32.40;;
49416;SDS011;35290;39.550;8.786;2023-12-20T09:16:31;61.58;;;39.38;;
49416;SDS011;35290;39.550;8.786;2023-12-20T09:18:57;55.63;;;34.45;;
49416;SDS011;35290;39.550;8.786;2023-12-20T09:21:22;53.08;;;34.85;;
49416;SDS011;35290;39.550;8.786;2023-12-20T09:23:48;53.70;;;33.55;;
49416;SDS011;35290;39.550;8.786;2023-12-20T09:26:14;50.78;;;31.85;;
49416;SDS011;35290;39.550;8.786;2023-12-20T09:28:39;47.90;;;30.52;;
49416;SDS011;35290;39.550;8.786;2023-12-20T09:31:05;41.78;;;24.90;;
49416;SDS011;35290;39.550;8.786;2023-12-20T09:33:31;39.20;;;26.73;;
49416;SDS011;35290;39.550;8.786;2023-12-20T09:35:57;30.65;;;19.33;;
49416;SDS011;35290;39.550;8.786;2023-12-20T09:38:23;22.05;;;14.43;;
49416;SDS011;35290;39.550;8.786;2023-12-20T09:40:48;29.75;;;17.45;;
49416;SDS011;35290;39.550;8.786;2023-12-20T09:43:14;27.88;;;18.45;;
49416;SDS011;35290;39.550;8.786;2023-12-20T09:45:44;30.38;;;19.90;;
49416;SDS011;35290;39.550;8.786;2023-12-20T09:48:12;29.63;;;18.90;;
49416;SDS011;35290;39.550;8.786;2023-12-20T09:50:40;32.15;;;20.13;;
49416;SDS011;35290;39.550;8.786;2023-12-20T09:53:05;28.73;;;19.58;;
49416;SDS011;35290;39.550;8.786;2023-12-20T09:55:34;36.67;;;23.67;;
49416;SDS011;35290;39.550;8.786;2023-12-20T09:58:01;38.20;;;23.00;;
49416;SDS011;35290;39.550;8.786;2023-12-20T10:00:26;28.02;;;18.52;;
49416;SDS011;35290;39.550;8.786;2023-12-20T10:05:20;23.73;;;15.00;;
49416;SDS011;35290;39.550;8.786;2023-12-20T10:07:58;17.08;;;10.07;;
49416;SDS011;35290;39.550;8.786;2023-12-20T10:10:24;14.27;;;9.57;;
49416;SDS011;35290;39.550;8.786;2023-12-20T10:13:04;16.70;;;9.23;;
49416;SDS011;35290;39.550;8.786;2023-12-20T10:15:32;16.13;;;9.00;;
49416;SDS011;35290;39.550;8.786;2023-12-20T10:17:58;14.43;;;8.73;;
49416;SDS011;35290;39.550;8.786;2023-12-20T10:20:24;15.75;;;8.88;;
49416;SDS011;35290;39.550;8.786;2023-12-20T10:22:50;13.02;;;8.73;;
49416;SDS011;35290;39.550;8.786;2023-12-20T10:25:18;12.07;;;8.43;;
49416;SDS011;35290;39.550;8.786;2023-12-20T10:27:44;15.27;;;8.50;;
49416;SDS011;35290;39.550;8.786;2023-12-20T10:30:10;16.58;;;9.15;;
49416;SDS011;35290;39.550;8.786;2023-12-20T10:32:36;12.48;;;7.50;;
49416;SDS011;35290;39.550;8.786;2023-12-20T10:35:01;14.35;;;7.97;;
49416;SDS011;35290;39.550;8.786;2023-12-20T10:37:27;14.02;;;7.18;;
49416;SDS011;35290;39.550;8.786;2023-12-20T10:39:53;14.38;;;6.47;;
49416;SDS011;35290;39.550;8.786;2023-12-20T10:42:26;12.70;;;6.43;;
49416;SDS011;35290;39.550;8.786;2023-12-20T10:44:52;11.27;;;5.28;;
49416;SDS011;35290;39.550;8.786;2023-12-20T10:47:19;14.15;;;4.70;;
49416;SDS011;35290;39.550;8.786;2023-12-20T10:49:45;11.77;;;4.90;;
49416;SDS011;35290;39.550;8.786;2023-12-20T10:52:11;13.38;;;4.43;;
49416;SDS011;35290;39.550;8.786;2023-12-20T10:54:41;20.60;;;8.00;;
49416;SDS011;35290;39.550;8.786;2023-12-20T10:57:07;22.17;;;7.90;;
49416;SDS011;35290;39.550;8.786;2023-12-20T10:59:36;12.95;;;5.57;;
49416;SDS011;35290;39.550;8.786;2023-12-20T11:02:03;21.00;;;8.18;;
49416;SDS011;35290;39.550;8.786;2023-12-20T11:04:41;18.70;;;7.60;;
49416;SDS011;35290;39.550;8.786;2023-12-20T11:10:03;18.10;;;5.15;;
49416;SDS011;35290;39.550;8.786;2023-12-20T11:12:50;18.35;;;5.20;;
49416;SDS011;35290;39.550;8.786;2023-12-20T11:15:19;10.30;;;4.55;;
49416;SDS011;35290;39.550;8.786;2023-12-20T11:17:45;16.33;;;5.00;;
49416;SDS011;35290;39.550;8.786;2023-12-20T11:20:13;21.48;;;6.50;;
49416;SDS011;35290;39.550;8.786;2023-12-20T11:22:40;17.27;;;4.72;;
49416;SDS011;35290;39.550;8.786;2023-12-20T11:25:17;19.17;;;5.68;;
49416;SDS011;35290;39.550;8.786;2023-12-20T11:27:43;16.45;;;5.63;;
49416;SDS011;35290;39.550;8.786;2023-12-20T11:30:08;24.08;;;7.00;;
49416;SDS011;35290;39.550;8.786;2023-12-20T11:32:35;17.85;;;5.22;;
49416;SDS011;35290;39.550;8.786;2023-12-20T11:37:37;17.00;;;5.20;;
49416;SDS011;35290;39.550;8.786;2023-12-20T11:40:07;22.25;;;6.07;;
49416;SDS011;35290;39.550;8.786;2023-12-20T11:42:50;12.07;;;4.32;;
49416;SDS011;35290;39.550;8.786;2023-12-20T11:45:18;25.25;;;4.57;;
49416;SDS011;35290;39.550;8.786;2023-12-20T11:47:48;23.42;;;5.38;;
49416;SDS011;35290;39.550;8.786;2023-12-20T11:50:19;18.95;;;4.63;;
49416;SDS011;35290;39.550;8.786;2023-12-20T11:52:46;19.25;;;4.78;;
49416;SDS011;35290;39.550;8.786;2023-12-20T11:55:12;21.30;;;4.13;;
49416;SDS011;35290;39.550;8.786;2023-12-20T11:57:38;13.05;;;3.53;;
49416;SDS011;35290;39.550;8.786;2023-12-20T12:00:04;22.10;;;4.65;;
49416;SDS011;35290;39.550;8.786;2023-12-20T12:02:32;20.85;;;4.60;;
49416;SDS011;35290;39.550;8.786;2023-12-20T12:04:57;22.60;;;7.03;;
49416;SDS011;35290;39.550;8.786;2023-12-20T12:07:24;22.63;;;6.88;;
49416;SDS011;35290;39.550;8.786;2023-12-20T12:09:50;25.05;;;6.78;;
49416;SDS011;35290;39.550;8.786;2023-12-20T12:12:16;22.10;;;5.90;;
49416;SDS011;35290;39.550;8.786;2023-12-20T12:14:44;23.75;;;5.45;;
49416;SDS011;35290;39.550;8.786;2023-12-20T12:17:13;21.48;;;5.55;;
49416;SDS011;35290;39.550;8.786;2023-12-20T12:19:39;25.45;;;5.32;;
49416;SDS011;35290;39.550;8.786;2023-12-20T12:22:10;30.42;;;7.72;;
49416;SDS011;35290;39.550;8.786;2023-12-20T12:24:46;26.58;;;6.43;;
49416;SDS011;35290;39.550;8.786;2023-12-20T12:27:12;26.42;;;9.27;;
49416;SDS011;35290;39.550;8.786;2023-12-20T12:29:38;27.70;;;9.10;;
49416;SDS011;35290;39.550;8.786;2023-12-20T12:32:04;28.27;;;6.93;;
49416;SDS011;35290;39.550;8.786;2023-12-20T12:34:33;17.67;;;4.90;;
49416;SDS011;35290;39.550;8.786;2023-12-20T12:36:59;11.88;;;3.47;;
49416;SDS011;35290;39.550;8.786;2023-12-20T12:39:25;21.33;;;4.53;;
49416;SDS011;35290;39.550;8.786;2023-12-20T12:41:51;22.20;;;3.97;;
49416;SDS011;35290;39.550;8.786;2023-12-20T12:44:17;21.70;;;3.92;;
49416;SDS011;35290;39.550;8.786;2023-12-20T12:46:43;23.48;;;4.88;;
49416;SDS011;35290;39.550;8.786;2023-12-20T12:49:09;23.77;;;4.68;;
49416;SDS011;35290;39.550;8.786;2023-12-20T12:51:35;28.65;;;5.28;;
49416;SDS011;35290;39.550;8.786;2023-12-20T12:54:00;22.67;;;4.93;;
49416;SDS011;35290;39.550;8.786;2023-12-20T12:56:26;17.80;;;4.20;;
49416;SDS011;35290;39.550;8.786;2023-12-20T12:58:51;17.58;;;5.15;;
49416;SDS011;35290;39.550;8.786;2023-12-20T13:01:16;23.75;;;5.90;;
49416;SDS011;35290;39.550;8.786;2023-12-20T13:03:42;25.00;;;5.50;;
49416;SDS011;35290;39.550;8.786;2023-12-20T13:06:08;27.20;;;5.18;;
49416;SDS011;35290;39.550;8.786;2023-12-20T13:08:34;28.13;;;5.55;;
49416;SDS011;35290;39.550;8.786;2023-12-20T13:10:59;28.45;;;4.95;;
49416;SDS011;35290;39.550;8.786;2023-12-20T13:13:28;21.73;;;5.90;;
49416;SDS011;35290;39.550;8.786;2023-12-20T13:15:54;17.00;;;3.95;;
49416;SDS011;35290;39.550;8.786;2023-12-20T13:18:20;14.90;;;3.83;;
49416;SDS011;35290;39.550;8.786;2023-12-20T13:20:46;16.52;;;3.60;;
49416;SDS011;35290;39.550;8.786;2023-12-20T13:23:12;12.40;;;4.13;;
49416;SDS011;35290;39.550;8.786;2023-12-20T13:25:38;19.65;;;3.60;;
49416;SDS011;35290;39.550;8.786;2023-12-20T13:28:04;18.00;;;4.38;;
49416;SDS011;35290;39.550;8.786;2023-12-20T13:30:30;19.05;;;5.32;;
49416;SDS011;35290;39.550;8.786;2023-12-20T13:32:56;16.85;;;4.80;;
49416;SDS011;35290;39.550;8.786;2023-12-20T13:35:21;19.17;;;4.50;;
49416;SDS011;35290;39.550;8.786;2023-12-20T13:37:47;15.18;;;4.55;;
49416;SDS011;35290;39.550;8.786;2023-12-20T13:40:12;15.48;;;3.40;;
49416;SDS011;35290;39.550;8.786;2023-12-20T13:42:38;18.02;;;6.07;;
49416;SDS011;35290;39.550;8.786;2023-12-20T13:45:04;16.02;;;3.70;;
49416;SDS011;35290;39.550;8.786;2023-12-20T13:47:31;13.65;;;3.67;;
49416;SDS011;35290;39.550;8.786;2023-12-20T13:49:57;21.92;;;4.70;;
49416;SDS011;35290;39.550;8.786;2023-12-20T13:52:23;10.73;;;3.03;;
49416;SDS011;35290;39.550;8.786;2023-12-20T13:54:48;11.73;;;3.53;;
49416;SDS011;35290;39.550;8.786;2023-12-20T13:57:14;19.85;;;4.75;;
49416;SDS011;35290;39.550;8.786;2023-12-20T13:59:39;15.27;;;3.67;;
49416;SDS011;35290;39.550;8.786;2023-12-20T14:02:05;14.50;;;3.13;;
49416;SDS011;35290;39.550;8.786;2023-12-20T14:04:30;14.60;;;3.97;;
49416;SDS011;35290;39.550;8.786;2023-12-20T14:06:56;14.20;;;3.45;;
49416;SDS011;35290;39.550;8.786;2023-12-20T14:09:22;17.13;;;3.33;;
49416;SDS011;35290;39.550;8.786;2023-12-20T14:11:47;16.92;;;4.82;;
49416;SDS011;35290;39.550;8.786;2023-12-20T14:14:13;23.88;;;4.30;;
49416;SDS011;35290;39.550;8.786;2023-12-20T14:16:38;16.10;;;3.63;;
49416;SDS011;35290;39.550;8.786;2023-12-20T14:19:04;15.43;;;3.38;;
49416;SDS011;35290;39.550;8.786;2023-12-20T14:21:32;10.25;;;2.47;;
49416;SDS011;35290;39.550;8.786;2023-12-20T14:23:58;12.63;;;3.15;;
49416;SDS011;35290;39.550;8.786;2023-12-20T14:26:24;18.90;;;6.78;;
49416;SDS011;35290;39.550;8.786;2023-12-20T14:28:49;18.70;;;5.85;;